createdAt,value
2022-09-02T00:02:04.276Z,57.00
2022-09-02T00:04:31.693Z,57.10
2022-09-02T00:06:58.527Z,57.40
2022-09-02T00:09:26.473Z,57.70
2022-09-02T00:11:55.018Z,58.00
2022-09-02T00:14:28.784Z,58.10
2022-09-02T00:16:56.067Z,58.30
2022-09-02T00:19:25.503Z,58.70
2022-09-02T00:21:55.474Z,58.90
2022-09-02T00:24:24.850Z,59.10
2022-09-02T00:26:51.699Z,59.40
2022-09-02T00:29:24.261Z,59.50
2022-09-02T00:31:51.167Z,59.80
2022-09-02T00:34:18.154Z,60.10
2022-09-02T00:36:46.112Z,60.30
2022-09-02T00:39:12.954Z,60.60
2022-09-02T00:41:42.018Z,60.90
2022-09-02T00:44:12.577Z,61.30
2022-09-02T00:46:39.820Z,61.70
2022-09-02T00:49:25.094Z,61.70
2022-09-02T00:51:54.946Z,62.00
2022-09-02T00:54:24.082Z,62.30
2022-09-02T00:56:55.592Z,62.70
2022-09-02T00:59:39.127Z,63.00
2022-09-02T01:02:10.051Z,63.00
2022-09-02T01:04:37.551Z,63.40
2022-09-02T01:07:06.135Z,63.80
2022-09-02T01:09:33.502Z,64.00
2022-09-02T01:12:03.108Z,64.40
2022-09-02T01:14:30.437Z,64.50
2022-09-02T01:17:01.252Z,64.60
2022-09-02T01:19:43.414Z,64.90
2022-09-02T01:22:24.916Z,65.20
2022-09-02T01:24:52.723Z,65.50
2022-09-02T01:27:22.435Z,65.50
2022-09-02T01:29:56.121Z,65.90
2022-09-02T01:32:24.122Z,65.90
2022-09-02T01:34:51.768Z,65.90
2022-09-02T01:37:19.500Z,66.00
2022-09-02T01:39:46.549Z,66.10
2022-09-02T01:42:13.489Z,66.50
2022-09-02T01:44:45.013Z,66.60
2022-09-02T01:47:19.039Z,66.80
2022-09-02T01:49:46.606Z,67.00
2022-09-02T01:52:14.260Z,67.30
2022-09-02T01:54:41.359Z,67.50
2022-09-02T01:57:09.209Z,67.70
2022-09-02T01:59:36.064Z,68.00
2022-09-02T02:02:04.110Z,68.20
2022-09-02T02:04:33.427Z,68.50
2022-09-02T02:07:00.739Z,68.90
2022-09-02T02:09:27.992Z,69.00
2022-09-02T02:11:55.523Z,69.20
2022-09-02T02:14:22.997Z,69.30
2022-09-02T02:16:51.300Z,69.30
2022-09-02T02:19:18.249Z,69.50
2022-09-02T02:21:45.410Z,69.60
2022-09-02T02:24:12.496Z,69.80
2022-09-02T02:26:39.276Z,69.80
2022-09-02T02:29:08.544Z,70.00
2022-09-02T02:31:37.755Z,70.20
2022-09-02T02:34:04.944Z,70.40
2022-09-02T02:36:33.395Z,70.60
2022-09-02T02:39:01.578Z,70.90
2022-09-02T02:41:30.510Z,71.10
2022-09-02T02:43:57.812Z,71.50
2022-09-02T02:46:25.410Z,71.50
2022-09-02T02:48:52.433Z,71.70
2022-09-02T02:51:20.070Z,72.10
2022-09-02T02:53:49.893Z,72.40
2022-09-02T02:56:17.233Z,72.30
2022-09-02T02:58:44.147Z,72.60
2022-09-02T03:01:11.587Z,72.90
2022-09-02T03:03:38.851Z,72.90
2022-09-02T03:06:05.985Z,72.90
2022-09-02T03:08:33.577Z,73.20
2022-09-02T03:11:01.170Z,73.60
2022-09-02T03:13:32.178Z,73.80
2022-09-02T03:16:01.838Z,74.00
2022-09-02T03:18:28.888Z,74.20
2022-09-02T03:20:57.312Z,74.40
2022-09-02T03:23:24.423Z,74.70
2022-09-02T03:25:51.381Z,74.90
2022-09-02T03:28:33.674Z,75.30
2022-09-02T03:31:02.472Z,75.40
2022-09-02T03:33:29.328Z,75.50
2022-09-02T03:35:57.144Z,75.70
2022-09-02T03:38:25.523Z,75.90
2022-09-02T03:40:52.420Z,76.10
2022-09-02T03:43:19.412Z,76.30
2022-09-02T03:45:46.452Z,76.60
2022-09-02T03:48:15.189Z,76.90
2022-09-02T03:50:47.246Z,77.10
2022-09-02T03:53:19.731Z,77.30
2022-09-02T03:55:49.513Z,77.60
2022-09-02T03:58:18.594Z,77.90
2022-09-02T04:00:51.558Z,78.20
2022-09-02T04:03:20.563Z,78.40
2022-09-02T04:05:52.384Z,78.70
2022-09-02T04:08:21.354Z,78.80
2022-09-02T04:10:49.432Z,79.20
2022-09-02T04:13:17.202Z,79.40
2022-09-02T04:15:47.877Z,79.60
2022-09-02T04:18:17.621Z,79.70
2022-09-02T04:20:45.188Z,79.90
2022-09-02T04:23:13.070Z,80.10
2022-09-02T04:25:44.085Z,80.30
2022-09-02T04:28:13.052Z,80.60
2022-09-02T04:30:41.703Z,80.60
2022-09-02T04:33:09.494Z,80.70
2022-09-02T04:35:43.567Z,81.10
2022-09-02T04:38:11.131Z,81.30
2022-09-02T04:40:42.467Z,81.50
2022-09-02T04:43:10.872Z,81.60
2022-09-02T04:45:46.019Z,81.70
2022-09-02T04:48:16.003Z,82.00
2022-09-02T04:50:43.430Z,82.30
2022-09-02T04:53:11.834Z,82.60
2022-09-02T04:55:42.414Z,82.90
2022-09-02T04:58:11.687Z,83.40
2022-09-02T05:00:40.371Z,83.70
2022-09-02T05:03:11.826Z,83.90
2022-09-02T05:05:40.351Z,83.90
2022-09-02T05:08:08.253Z,83.90
2022-09-02T05:10:35.561Z,84.30
2022-09-02T05:13:02.800Z,84.40
2022-09-02T05:15:31.161Z,84.40
2022-09-02T05:17:58.506Z,84.50
2022-09-02T05:20:26.084Z,84.80
2022-09-02T05:22:55.077Z,84.90
2022-09-02T05:25:23.025Z,85.10
2022-09-02T05:27:50.364Z,86.50
2022-09-02T05:30:17.360Z,85.60
2022-09-02T05:32:44.117Z,85.80
2022-09-02T05:35:11.005Z,86.00
2022-09-02T05:37:38.116Z,86.10
2022-09-02T05:40:07.763Z,86.30
2022-09-02T05:42:37.389Z,86.30
2022-09-02T05:45:05.843Z,86.60
2022-09-02T05:47:34.158Z,86.60
2022-09-02T05:50:01.699Z,86.60
2022-09-02T05:52:33.666Z,86.50
2022-09-02T05:55:00.955Z,87.70
2022-09-02T05:57:27.803Z,86.60
2022-09-02T05:59:58.803Z,86.70
2022-09-02T06:02:40.647Z,86.20
2022-09-02T06:05:12.059Z,86.90
2022-09-02T06:07:42.632Z,87.20
2022-09-02T06:10:09.708Z,87.50
2022-09-02T06:12:41.904Z,87.70
2022-09-02T06:15:10.477Z,87.70
2022-09-02T06:17:38.736Z,87.80
2022-09-02T06:20:07.671Z,88.10
2022-09-02T06:22:36.428Z,88.10
2022-09-02T06:25:03.535Z,88.10
2022-09-02T06:27:31.022Z,87.70
2022-09-02T06:29:59.896Z,87.80
2022-09-02T06:32:27.259Z,87.90
2022-09-02T06:35:00.092Z,87.80
2022-09-02T06:37:28.128Z,87.80
2022-09-02T06:39:57.236Z,87.90
2022-09-02T06:42:26.847Z,88.00
2022-09-02T06:45:16.542Z,87.80
2022-09-02T06:47:45.958Z,87.20
2022-09-02T06:50:13.602Z,86.80
2022-09-02T06:52:41.360Z,86.60
2022-09-02T06:55:11.069Z,86.00
2022-09-02T06:57:38.996Z,86.10
2022-09-02T07:00:10.800Z,85.70
2022-09-02T07:02:38.356Z,85.20
2022-09-02T07:05:15.158Z,84.70
2022-09-02T07:07:45.941Z,84.20
2022-09-02T07:10:15.250Z,83.80
2022-09-02T07:12:46.656Z,82.90
2022-09-02T07:15:16.711Z,82.50
2022-09-02T07:17:43.956Z,82.20
2022-09-02T07:20:16.467Z,81.80
2022-09-02T07:25:22.425Z,81.00
2022-09-02T07:27:51.541Z,80.70
2022-09-02T07:30:19.233Z,80.50
2022-09-02T07:32:49.185Z,80.10
2022-09-02T07:35:17.244Z,79.90
2022-09-02T07:37:45.607Z,79.50
2022-09-02T07:40:14.412Z,79.30
2022-09-02T07:42:42.415Z,79.20
2022-09-02T07:45:10.455Z,79.00
2022-09-02T07:47:39.954Z,78.90
2022-09-02T07:50:20.135Z,78.50
2022-09-02T07:52:56.533Z,78.50
2022-09-02T07:55:23.502Z,78.70
2022-09-02T07:57:52.413Z,78.50
2022-09-02T08:00:22.682Z,78.10
2022-09-02T08:02:51.335Z,77.70
2022-09-02T08:05:24.451Z,77.10
2022-09-02T08:07:51.244Z,76.60
2022-09-02T08:10:20.181Z,76.50
2022-09-02T08:12:48.036Z,75.90
2022-09-02T08:15:16.335Z,75.40
2022-09-02T08:17:44.301Z,74.70
2022-09-02T08:20:13.635Z,74.60
2022-09-02T08:22:40.975Z,74.80
2022-09-02T08:25:08.513Z,74.90
2022-09-02T08:27:36.467Z,74.80
2022-09-02T08:30:05.145Z,74.40
2022-09-02T08:32:32.819Z,74.00
2022-09-02T08:35:02.901Z,72.70
2022-09-02T08:37:31.426Z,71.90
2022-09-02T08:39:58.702Z,71.60
2022-09-02T08:42:28.265Z,70.80
2022-09-02T08:45:00.566Z,70.20
2022-09-02T08:47:30.851Z,70.00
2022-09-02T08:50:03.189Z,69.50
2022-09-02T08:52:39.458Z,69.00
2022-09-02T08:55:10.805Z,68.20
2022-09-02T08:57:43.327Z,67.50
2022-09-02T09:00:11.910Z,66.80
2022-09-02T09:02:56.671Z,66.50
2022-09-02T09:05:44.452Z,66.20
2022-09-02T09:08:25.817Z,66.00
2022-09-02T09:11:10.676Z,64.90
2022-09-02T09:13:43.839Z,64.50
2022-09-02T09:16:22.955Z,64.30
2022-09-02T09:19:03.069Z,63.80
2022-09-02T09:21:33.302Z,63.50
2022-09-02T09:24:06.759Z,63.00
2022-09-02T09:26:39.120Z,62.80
2022-09-02T09:29:06.166Z,63.50
2022-09-02T09:31:35.985Z,62.10
2022-09-02T09:34:04.706Z,61.90
2022-09-02T09:36:40.545Z,61.90
2022-09-02T09:39:19.629Z,61.10
2022-09-02T09:41:48.097Z,60.70
2022-09-02T09:44:37.556Z,60.20
2022-09-02T09:47:08.235Z,59.90
2022-09-02T09:49:36.628Z,59.10
2022-09-02T09:52:04.394Z,59.00
2022-09-02T09:54:31.666Z,58.80
2022-09-02T09:57:16.001Z,59.10
2022-09-02T09:59:49.852Z,59.40
2022-09-02T10:02:27.979Z,58.40
2022-09-02T10:05:16.125Z,58.00
2022-09-02T10:07:45.352Z,57.00
2022-09-02T10:10:23.702Z,57.20
2022-09-02T10:12:52.711Z,56.70
2022-09-02T10:15:45.037Z,56.40
2022-09-02T10:18:49.384Z,55.90
2022-09-02T10:21:39.870Z,55.90
2022-09-02T10:24:32.454Z,55.70
2022-09-02T10:27:00.492Z,55.50
2022-09-02T10:29:40.103Z,54.60
2022-09-02T10:32:27.172Z,54.20
2022-09-02T10:34:59.996Z,54.30
2022-09-02T10:37:38.287Z,53.80
2022-09-02T10:40:19.469Z,53.40
2022-09-02T10:43:18.581Z,52.90
2022-09-02T10:45:46.603Z,52.10
2022-09-02T10:48:39.058Z,52.20
2022-09-02T10:51:48.270Z,51.60
2022-09-02T10:54:55.313Z,51.60
2022-09-02T10:57:34.381Z,51.70
2022-09-02T11:00:09.470Z,51.20
2022-09-02T11:02:51.629Z,50.10
2022-09-02T11:05:27.042Z,49.80
2022-09-02T11:08:05.959Z,50.00
2022-09-02T11:10:41.649Z,50.10
2022-09-02T11:13:14.769Z,50.20
2022-09-02T11:15:51.626Z,49.50
2022-09-02T11:18:30.207Z,49.20
2022-09-02T11:21:00.032Z,49.10
2022-09-02T11:23:51.451Z,49.00
2022-09-02T11:26:24.098Z,49.10
2022-09-02T11:28:54.490Z,49.70
2022-09-02T11:32:05.672Z,49.40
2022-09-02T11:34:40.289Z,48.80
2022-09-02T11:37:17.958Z,48.40
2022-09-02T11:40:02.313Z,48.00
2022-09-02T11:43:07.750Z,47.80
2022-09-02T11:45:56.894Z,47.80
2022-09-02T11:48:29.414Z,47.50
2022-09-02T11:51:05.441Z,47.40
2022-09-02T11:53:38.005Z,47.30
2022-09-02T11:56:21.970Z,47.00
2022-09-02T11:58:55.888Z,47.00
2022-09-02T12:01:27.735Z,46.20
2022-09-02T12:07:09.616Z,45.90
2022-09-02T12:09:56.162Z,45.30
2022-09-02T12:12:38.905Z,44.50
2022-09-02T12:15:06.307Z,44.10
2022-09-02T12:17:40.019Z,43.80
2022-09-02T12:20:11.262Z,43.50
2022-09-02T12:22:42.396Z,43.60
2022-09-02T12:25:28.425Z,42.80
2022-09-02T12:28:25.207Z,42.30
2022-09-02T12:30:55.768Z,42.10
2022-09-02T12:33:44.090Z,42.00
2022-09-02T12:36:37.361Z,41.90
2022-09-02T12:39:22.782Z,41.40
2022-09-02T12:42:01.294Z,41.00
2022-09-02T12:44:47.106Z,39.50
2022-09-02T12:47:19.773Z,39.00
2022-09-02T12:50:08.234Z,38.80
2022-09-02T12:52:39.813Z,39.10
2022-09-02T12:55:33.984Z,38.20
2022-09-02T12:58:16.826Z,37.60
2022-09-02T13:00:46.177Z,36.90
2022-09-02T13:03:23.883Z,36.80
2022-09-02T13:06:01.685Z,36.80
2022-09-02T13:08:31.502Z,36.50
2022-09-02T13:11:25.341Z,36.60
2022-09-02T13:14:29.389Z,36.50
2022-09-02T13:17:35.621Z,36.50
2022-09-02T13:20:28.395Z,37.10
2022-09-02T13:23:19.617Z,35.20
2022-09-02T13:26:22.928Z,35.10
2022-09-02T13:29:17.670Z,34.90
2022-09-02T13:32:11.008Z,35.00
2022-09-02T13:34:49.792Z,34.50
2022-09-02T13:37:37.910Z,33.80
2022-09-02T13:40:19.415Z,33.50
2022-09-02T13:42:55.244Z,32.90
2022-09-02T13:45:25.422Z,32.50
2022-09-02T13:47:54.785Z,32.70
2022-09-02T13:50:25.190Z,33.00
2022-09-02T13:53:45.872Z,33.00
2022-09-02T13:56:07.139Z,33.20
2022-09-02T13:58:48.015Z,32.70
2022-09-02T14:01:21.832Z,33.00
2022-09-02T14:03:51.801Z,32.80
2022-09-02T14:06:23.535Z,32.60
2022-09-02T14:08:58.457Z,32.70
2022-09-02T14:11:26.473Z,32.30
2022-09-02T14:13:54.774Z,32.00
2022-09-02T14:16:36.117Z,31.90
2022-09-02T14:19:24.146Z,31.80
2022-09-02T14:21:57.236Z,31.10
2022-09-02T14:24:37.540Z,30.90
2022-09-02T14:27:15.428Z,30.90
2022-09-02T14:29:45.553Z,31.00
2022-09-02T14:32:15.329Z,31.10
2022-09-02T14:34:45.445Z,31.10
2022-09-02T14:37:24.578Z,31.30
2022-09-02T14:40:07.284Z,31.40
2022-09-02T14:42:42.816Z,31.80
2022-09-02T14:45:11.858Z,31.90
2022-09-02T14:47:40.263Z,32.10
2022-09-02T14:50:15.470Z,32.20
2022-09-02T14:52:48.800Z,32.40
2022-09-02T14:55:45.681Z,33.10
2022-09-02T14:58:12.850Z,33.20
2022-09-02T15:00:39.608Z,33.10
2022-09-02T15:03:07.206Z,33.80
2022-09-02T15:05:34.079Z,31.90
2022-09-02T15:08:01.051Z,31.50
2022-09-02T15:10:27.992Z,31.10
2022-09-02T15:12:57.237Z,30.70
2022-09-02T15:15:25.007Z,30.00
2022-09-02T15:17:51.838Z,29.80
2022-09-02T15:20:18.720Z,29.60
2022-09-02T15:22:45.530Z,29.60
2022-09-02T15:25:12.695Z,29.00
2022-09-02T15:27:39.541Z,28.70
2022-09-02T15:30:09.199Z,28.50
2022-09-02T15:32:37.721Z,28.30
2022-09-02T15:35:06.884Z,28.10
2022-09-02T15:37:37.314Z,27.90
2022-09-02T15:40:06.735Z,27.90
2022-09-02T15:42:38.697Z,28.20
2022-09-02T15:45:08.917Z,27.60
2022-09-02T15:47:37.192Z,27.30
2022-09-02T15:50:07.854Z,27.00
2022-09-02T15:52:35.791Z,26.90
2022-09-02T15:55:03.268Z,27.10
2022-09-02T15:57:30.350Z,27.30
2022-09-02T15:59:57.268Z,27.50
2022-09-02T16:02:24.148Z,27.80
2022-09-02T16:04:51.105Z,27.90
2022-09-02T16:07:18.064Z,27.80
2022-09-02T16:09:44.912Z,28.00
2022-09-02T16:12:12.584Z,27.80
2022-09-02T16:14:39.481Z,27.90
2022-09-02T16:17:08.412Z,27.80
2022-09-02T16:19:35.153Z,28.80
2022-09-02T16:22:02.039Z,27.80
2022-09-02T16:24:28.913Z,27.60
2022-09-02T16:26:55.736Z,27.30
2022-09-02T16:29:27.104Z,27.40
2022-09-02T16:32:14.083Z,27.50
2022-09-02T16:34:41.540Z,27.60
2022-09-02T16:37:08.442Z,27.50
2022-09-02T16:39:35.448Z,27.40
2022-09-02T16:42:04.350Z,27.40
2022-09-02T16:44:33.769Z,27.50
2022-09-02T16:47:00.554Z,27.30
2022-09-02T16:49:27.527Z,27.30
2022-09-02T16:51:58.006Z,27.40
2022-09-02T16:54:31.153Z,27.50
2022-09-02T16:56:58.977Z,27.50
2022-09-02T16:59:25.807Z,27.20
2022-09-02T17:01:52.643Z,27.10
2022-09-02T17:04:19.461Z,27.20
2022-09-02T17:06:46.261Z,27.20
2022-09-02T17:09:13.102Z,27.20
2022-09-02T17:11:41.254Z,27.30
2022-09-02T17:14:15.239Z,27.30
2022-09-02T17:16:48.552Z,27.40
2022-09-02T17:19:21.368Z,27.60
2022-09-02T17:21:53.141Z,27.60
2022-09-02T17:24:25.057Z,27.80
2022-09-02T17:26:55.822Z,28.30
2022-09-02T17:32:14.808Z,28.30
2022-09-02T17:34:41.620Z,29.40
2022-09-02T17:37:08.494Z,28.70
2022-09-02T17:39:35.554Z,28.80
2022-09-02T17:42:05.195Z,29.10
2022-09-02T17:44:36.560Z,29.30
2022-09-02T17:47:06.268Z,29.30
2022-09-02T17:49:35.471Z,29.50
2022-09-02T17:52:05.306Z,29.70
2022-09-02T17:54:32.156Z,30.00
2022-09-02T17:57:01.784Z,30.20
2022-09-02T17:59:40.324Z,30.60
2022-09-02T18:02:28.074Z,30.80
2022-09-02T18:05:02.560Z,31.20
2022-09-02T18:07:50.731Z,31.60
2022-09-02T18:10:17.899Z,31.90
2022-09-02T18:12:44.697Z,32.20
2022-09-02T18:15:16.511Z,32.40
2022-09-02T18:17:52.465Z,32.50
2022-09-02T18:20:38.392Z,32.80
2022-09-02T18:23:29.398Z,33.10
2022-09-02T18:25:59.247Z,33.30
2022-09-02T18:28:43.878Z,33.30
2022-09-02T18:31:44.303Z,33.70
2022-09-02T18:34:17.645Z,34.30
2022-09-02T18:37:22.139Z,34.00
2022-09-02T18:40:16.652Z,34.30
2022-09-02T18:43:21.418Z,34.50
2022-09-02T18:45:52.102Z,34.70
2022-09-02T18:48:31.297Z,35.00
2022-09-02T18:51:33.664Z,34.90
2022-09-02T18:54:14.062Z,35.40
2022-09-02T18:56:49.646Z,35.60
2022-09-02T18:59:31.779Z,35.70
2022-09-02T19:02:05.694Z,35.90
2022-09-02T19:04:34.707Z,36.10
2022-09-02T19:07:20.021Z,36.30
2022-09-02T19:09:47.794Z,36.50
2022-09-02T19:12:14.635Z,36.70
2022-09-02T19:14:41.676Z,36.90
2022-09-02T19:17:10.080Z,36.90
2022-09-02T19:19:36.894Z,37.00
2022-09-02T19:22:10.360Z,37.30
2022-09-02T19:24:42.595Z,37.30
2022-09-02T19:27:14.802Z,37.50
2022-09-02T19:29:47.908Z,37.70
2022-09-02T19:32:15.292Z,37.80
2022-09-02T19:34:44.504Z,38.00
2022-09-02T19:37:13.909Z,38.10
2022-09-02T19:39:40.927Z,38.00
2022-09-02T19:42:07.837Z,38.10
2022-09-02T19:44:34.590Z,38.70
2022-09-02T19:49:48.219Z,38.50
2022-09-02T19:52:15.131Z,38.70
2022-09-02T19:54:42.138Z,38.70
2022-09-02T19:57:08.970Z,38.90
2022-09-02T19:59:35.752Z,39.00
2022-09-02T20:02:04.957Z,39.20
2022-09-02T20:04:33.391Z,39.20
2022-09-02T20:07:01.036Z,39.30
2022-09-02T20:09:29.315Z,39.20
2022-09-02T20:11:56.805Z,39.30
2022-09-02T20:14:23.731Z,40.70
2022-09-02T20:17:03.609Z,39.60
2022-09-02T20:19:31.929Z,40.30
2022-09-02T20:21:59.341Z,40.70
2022-09-02T20:24:31.419Z,40.50
2022-09-02T20:27:22.512Z,40.50
2022-09-02T20:30:04.965Z,40.50
2022-09-02T20:32:46.807Z,40.70
2022-09-02T20:35:35.070Z,40.60
2022-09-02T20:38:14.678Z,40.90
2022-09-02T20:40:50.733Z,41.00
2022-09-02T20:43:54.829Z,41.20
2022-09-02T20:46:33.269Z,40.70
2022-09-02T20:49:32.345Z,40.70
2022-09-02T20:52:17.986Z,40.20
2022-09-02T20:54:50.922Z,40.40
2022-09-02T20:57:46.730Z,40.40
2022-09-02T21:00:16.363Z,40.40
2022-09-02T21:03:00.836Z,40.60
2022-09-02T21:05:40.762Z,40.40
2022-09-02T21:08:22.183Z,40.70
2022-09-02T21:10:54.344Z,40.90
2022-09-02T21:13:46.802Z,40.90
2022-09-02T21:16:32.297Z,40.80
2022-09-02T21:19:17.514Z,40.90
2022-09-02T21:21:59.967Z,41.20
2022-09-02T21:25:09.814Z,41.10
2022-09-02T21:27:45.452Z,41.10
2022-09-02T21:30:17.041Z,41.60
2022-09-02T21:33:03.358Z,41.70
2022-09-02T21:35:47.411Z,41.90
2022-09-02T21:38:38.745Z,42.00
2022-09-02T21:41:31.555Z,42.00
2022-09-02T21:44:16.326Z,42.00
2022-09-02T21:47:23.102Z,42.40
2022-09-02T21:50:08.244Z,42.40
2022-09-02T21:52:49.769Z,42.60
2022-09-02T21:55:46.820Z,42.90
2022-09-02T21:58:22.396Z,42.80
2022-09-02T22:01:07.457Z,42.90
2022-09-02T22:03:47.502Z,43.00
2022-09-02T22:06:24.220Z,43.20
2022-09-02T22:09:08.554Z,43.30
2022-09-02T22:11:40.290Z,43.40
2022-09-02T22:14:15.193Z,43.50
2022-09-02T22:17:00.720Z,43.70
2022-09-02T22:19:30.972Z,43.80
2022-09-02T22:22:11.811Z,43.80
2022-09-02T22:24:40.501Z,43.90
2022-09-02T22:27:17.592Z,43.70
2022-09-02T22:30:11.668Z,44.10
2022-09-02T22:33:11.144Z,44.10
2022-09-02T22:36:14.569Z,44.50
2022-09-02T22:38:49.220Z,44.60
2022-09-02T22:41:25.209Z,45.10
2022-09-02T22:43:58.709Z,45.30
2022-09-02T22:46:59.209Z,45.40
2022-09-02T22:49:46.472Z,45.20
2022-09-02T22:52:46.542Z,45.30
2022-09-02T22:55:38.217Z,45.40
2022-09-02T22:58:30.842Z,45.60
2022-09-02T23:01:16.073Z,45.50
2022-09-02T23:04:16.342Z,47.20
2022-09-02T23:06:44.822Z,45.90
2022-09-02T23:09:13.979Z,46.00
2022-09-02T23:11:55.951Z,46.20
2022-09-02T23:14:36.783Z,46.50
2022-09-02T23:17:47.962Z,46.50
2022-09-02T23:20:34.091Z,46.80
2022-09-02T23:23:12.632Z,46.60
2022-09-02T23:25:47.466Z,46.80
2022-09-02T23:28:36.061Z,47.00
2022-09-02T23:31:05.814Z,48.70
2022-09-02T23:33:50.851Z,47.50
2022-09-02T23:36:35.042Z,47.70
2022-09-02T23:39:01.809Z,47.90
2022-09-02T23:41:28.823Z,48.10
2022-09-02T23:43:55.658Z,48.30
2022-09-02T23:46:31.835Z,48.50
2022-09-02T23:49:30.726Z,48.60
2022-09-02T23:52:20.649Z,48.80
2022-09-02T23:55:18.084Z,48.90
2022-09-02T23:58:06.799Z,49.10
